General Aviation Weather

Text Reports

Enter one or more of the following location identifiers separated by a space:

Zip Code, Four-Character ICAO or Three-Character IATA airport codes.

METAR - Aviation Routine Weather Report
KJFZ - Richlands, Virginia
Updated at 8:35 AM GMT on February 10, 2016 (3:35 AM EST):
METAR KJFZ 100835Z AUTO 30006KT 7SM -SN OVC012 M09/M11 A2977 RMK AO2 T10861115
TAF - Terminal Area Forecast
KJFZ - Richlands, Virginia
Updated at 8:35 AM GMT on February 10, 2016 (3:35 AM EST):
No TAF is currently available for this location.
Decoded:
No decoded TAF is available.
PIREP - Pilot Weather Report
KJFZ - Richlands, Virginia
Updated at 8:35 AM GMT on February 10, 2016 (3:35 AM EST):
No PIREP is currently available for this location.
AIRMET - Airmens Meteorological Information
KJFZ - Richlands, Virginia
Updated at 8:35 AM GMT on February 10, 2016 (3:35 AM EST):
No AIRMET is currently available for this location.
SIGMET - Significant Meteorological Information
KJFZ - Richlands, Virginia
Updated at 8:35 AM GMT on February 10, 2016 (3:35 AM EST):
No SIGMET is currently available for this location.
NOTAM - Notice to Airmen
KJFZ - Richlands, Virginia
Updated at 8:35 AM GMT on February 10, 2016 (3:35 AM EST):
No NOTAM is currently available for this location.
Forecast Area
KJFZ - Richlands, Virginia
Updated at 8:35 AM GMT on February 10, 2016 (3:35 AM EST):
No NOTAM is currently available for this location.
Aviation Weather Maps